createdAt,value
2023-02-18T00:02:22.157Z,9.50
2023-02-18T00:04:55.387Z,9.50
2023-02-18T00:07:26.063Z,9.50
2023-02-18T00:09:56.789Z,9.45
2023-02-18T00:12:27.532Z,9.48
2023-02-18T00:14:58.230Z,9.47
2023-02-18T00:17:29.636Z,9.42
2023-02-18T00:20:00.614Z,9.43
2023-02-18T00:22:31.488Z,9.40
2023-02-18T00:25:02.196Z,9.38
2023-02-18T00:27:32.874Z,9.38
2023-02-18T00:30:06.249Z,9.43
2023-02-18T00:32:38.518Z,9.45
2023-02-18T00:35:10.569Z,9.44
2023-02-18T00:37:41.202Z,9.46
2023-02-18T00:40:13.105Z,9.52
2023-02-18T00:42:43.777Z,9.60
2023-02-18T00:45:14.469Z,9.66
2023-02-18T00:47:45.030Z,9.64
2023-02-18T00:50:15.831Z,9.67
2023-02-18T00:52:46.408Z,9.67
2023-02-18T00:55:17.551Z,9.69
2023-02-18T00:57:48.102Z,9.70
2023-02-18T01:00:20.024Z,9.74
2023-02-18T01:02:54.698Z,9.76
2023-02-18T01:05:26.202Z,9.78
2023-02-18T01:07:57.008Z,9.77
2023-02-18T01:10:27.848Z,9.76
2023-02-18T01:12:58.481Z,9.77
2023-02-18T01:15:29.714Z,9.80
2023-02-18T01:18:00.475Z,9.82
2023-02-18T01:20:31.494Z,9.87
2023-02-18T01:23:02.168Z,9.89
2023-02-18T01:25:33.229Z,9.91
2023-02-18T01:28:05.484Z,9.92
2023-02-18T01:30:36.319Z,9.87
2023-02-18T01:33:08.774Z,9.84
2023-02-18T01:35:42.781Z,9.80
2023-02-18T01:38:13.435Z,9.75
2023-02-18T01:40:51.399Z,9.73
2023-02-18T01:43:23.375Z,9.68
2023-02-18T01:46:04.527Z,9.65
2023-02-18T01:48:39.883Z,9.63
2023-02-18T01:51:14.599Z,9.62
2023-02-18T01:53:51.966Z,9.61
2023-02-18T01:56:28.687Z,9.59
2023-02-18T01:59:01.508Z,9.58
2023-02-18T02:01:33.933Z,9.59
2023-02-18T02:04:05.435Z,9.59
2023-02-18T02:06:36.743Z,9.61
2023-02-18T02:09:11.174Z,9.59
2023-02-18T02:12:07.114Z,9.58
2023-02-18T02:14:56.011Z,9.60
2023-02-18T02:17:36.230Z,9.61
2023-02-18T02:20:33.764Z,9.62
2023-02-18T02:23:34.935Z,9.58
2023-02-18T02:26:38.109Z,9.52
2023-02-18T02:29:39.978Z,9.47
2023-02-18T02:32:29.637Z,9.47
2023-02-18T02:35:04.172Z,9.47
2023-02-18T02:37:43.394Z,9.50
2023-02-18T02:40:27.424Z,9.44
2023-02-18T02:43:14.037Z,9.36
2023-02-18T02:45:55.825Z,9.31
2023-02-18T02:48:34.278Z,9.25
2023-02-18T02:51:13.146Z,9.23
2023-02-18T02:53:45.729Z,9.22
2023-02-18T02:56:19.852Z,9.21
2023-02-18T02:58:58.975Z,9.19
2023-02-18T03:01:44.146Z,9.18
2023-02-18T03:04:24.230Z,9.15
2023-02-18T03:07:13.888Z,9.16
2023-02-18T03:10:04.075Z,9.14
2023-02-18T03:12:43.625Z,9.15
2023-02-18T03:15:24.086Z,9.15
2023-02-18T03:18:01.798Z,9.13
2023-02-18T03:20:38.367Z,9.11
2023-02-18T03:23:13.066Z,9.09
2023-02-18T03:25:45.045Z,9.09
2023-02-18T03:28:19.657Z,9.13
2023-02-18T03:30:53.068Z,9.14
2023-02-18T03:33:40.444Z,9.12
2023-02-18T03:36:13.992Z,9.10
2023-02-18T03:38:50.549Z,9.08
2023-02-18T03:41:21.515Z,9.06
2023-02-18T03:44:00.586Z,9.05
2023-02-18T03:46:32.890Z,9.02
2023-02-18T03:49:04.362Z,9.02
2023-02-18T03:51:35.169Z,9.00
2023-02-18T03:54:06.224Z,8.98
2023-02-18T03:56:38.132Z,8.98
2023-02-18T03:59:08.730Z,9.01
2023-02-18T04:01:39.422Z,9.02
2023-02-18T04:04:10.906Z,9.01
2023-02-18T04:06:41.669Z,9.00
2023-02-18T04:09:12.664Z,9.04
2023-02-18T04:11:43.861Z,9.04
2023-02-18T04:14:16.264Z,9.07
2023-02-18T04:16:46.974Z,9.07
2023-02-18T04:19:17.765Z,9.10
2023-02-18T04:21:48.435Z,9.10
2023-02-18T04:24:19.033Z,9.09
2023-02-18T04:26:50.297Z,9.10
2023-02-18T04:29:20.941Z,9.11
2023-02-18T04:31:51.676Z,9.09
2023-02-18T04:34:22.399Z,9.08
2023-02-18T04:36:53.137Z,9.08
2023-02-18T04:39:23.772Z,9.07
2023-02-18T04:41:54.483Z,9.07
2023-02-18T04:44:25.224Z,9.07
2023-02-18T04:46:55.865Z,9.09
2023-02-18T04:49:26.587Z,9.07
2023-02-18T04:51:57.337Z,9.02
2023-02-18T04:54:28.067Z,9.05
2023-02-18T04:56:58.812Z,9.04
2023-02-18T04:59:29.687Z,9.02
2023-02-18T05:02:00.364Z,9.09
2023-02-18T05:04:31.038Z,9.10
2023-02-18T05:07:01.918Z,9.12
2023-02-18T05:09:32.669Z,9.15
2023-02-18T05:12:03.367Z,9.19
2023-02-18T05:14:34.098Z,9.21
2023-02-18T05:17:05.041Z,9.21
2023-02-18T05:19:35.851Z,9.21
2023-02-18T05:22:06.586Z,9.19
2023-02-18T05:24:37.281Z,9.17
2023-02-18T05:27:07.925Z,9.18
2023-02-18T05:29:38.522Z,9.17
2023-02-18T05:32:09.561Z,9.16
2023-02-18T05:34:40.254Z,9.21
2023-02-18T05:37:11.056Z,9.23
2023-02-18T05:39:41.900Z,9.24
2023-02-18T05:42:12.602Z,9.29
2023-02-18T05:44:43.293Z,9.28
2023-02-18T05:47:14.981Z,9.33
2023-02-18T05:49:46.197Z,9.33
2023-02-18T05:52:16.746Z,9.38
2023-02-18T05:54:47.469Z,9.40
2023-02-18T05:57:18.160Z,9.44
2023-02-18T05:59:48.752Z,9.50
2023-02-18T06:02:19.486Z,9.59
2023-02-18T06:04:50.464Z,9.66
2023-02-18T06:07:21.172Z,9.70
2023-02-18T06:09:51.838Z,9.74
2023-02-18T06:12:22.529Z,9.72
2023-02-18T06:14:53.212Z,9.73
2023-02-18T06:17:23.819Z,9.75
2023-02-18T06:19:54.540Z,9.78
2023-02-18T06:22:25.264Z,9.80
2023-02-18T06:24:55.936Z,9.81
2023-02-18T06:27:26.639Z,9.80
2023-02-18T06:29:57.472Z,9.80
2023-02-18T06:32:28.290Z,9.80
2023-02-18T06:34:59.032Z,9.79
2023-02-18T06:37:29.618Z,9.78
2023-02-18T06:40:00.343Z,9.76
2023-02-18T06:42:31.006Z,9.74
2023-02-18T06:45:01.683Z,9.71
2023-02-18T06:47:32.365Z,9.70
2023-02-18T06:50:03.058Z,9.69
2023-02-18T06:52:34.635Z,9.69
2023-02-18T06:55:05.743Z,9.69
2023-02-18T06:57:36.926Z,9.71
2023-02-18T07:00:10.437Z,9.72
2023-02-18T07:02:41.138Z,9.74
2023-02-18T07:05:11.961Z,9.77
2023-02-18T07:07:42.789Z,9.78
2023-02-18T07:10:13.946Z,9.79
2023-02-18T07:12:44.677Z,9.81
2023-02-18T07:15:15.371Z,9.84
2023-02-18T07:17:46.129Z,9.89
2023-02-18T07:20:16.834Z,9.90
2023-02-18T07:22:47.510Z,9.91
2023-02-18T07:25:18.187Z,9.95
2023-02-18T07:27:49.303Z,9.92
2023-02-18T07:30:21.214Z,9.86
2023-02-18T07:32:52.021Z,9.80
2023-02-18T07:35:23.330Z,9.72
2023-02-18T07:37:54.015Z,9.62
2023-02-18T07:40:24.831Z,9.50
2023-02-18T07:42:55.586Z,9.41
2023-02-18T07:45:26.332Z,9.34
2023-02-18T07:47:57.168Z,9.32
2023-02-18T07:50:27.764Z,9.24
2023-02-18T07:52:58.456Z,9.20
2023-02-18T07:55:49.100Z,9.17
2023-02-18T07:58:21.066Z,9.13
2023-02-18T08:00:53.551Z,9.08
2023-02-18T08:03:26.595Z,9.07
2023-02-18T08:05:58.635Z,9.07
2023-02-18T08:08:31.985Z,9.07
2023-02-18T08:11:13.370Z,9.06
2023-02-18T08:13:49.420Z,9.05
2023-02-18T08:16:22.133Z,9.05
2023-02-18T08:18:54.154Z,9.06
2023-02-18T08:21:26.026Z,9.04
2023-02-18T08:23:58.638Z,9.05
2023-02-18T08:26:29.973Z,9.07
2023-02-18T08:29:00.701Z,9.08
2023-02-18T08:31:32.464Z,9.11
2023-02-18T08:34:04.800Z,9.11
2023-02-18T08:36:36.865Z,9.06
2023-02-18T08:39:07.779Z,9.11
2023-02-18T08:41:38.371Z,9.14
2023-02-18T08:44:09.386Z,9.16
2023-02-18T08:46:40.117Z,9.18
2023-02-18T08:49:11.043Z,9.15
2023-02-18T08:51:41.713Z,9.14
2023-02-18T08:54:12.519Z,9.17
2023-02-18T08:56:43.614Z,9.20
2023-02-18T08:59:14.357Z,9.23
2023-02-18T09:01:45.230Z,9.24
2023-02-18T09:04:16.134Z,9.27
2023-02-18T09:06:47.621Z,9.31
2023-02-18T09:09:20.111Z,9.33
2023-02-18T09:11:51.250Z,9.34
2023-02-18T09:14:22.175Z,9.35
2023-02-18T09:16:52.955Z,9.33
2023-02-18T09:19:23.881Z,9.33
2023-02-18T09:21:54.942Z,9.33
2023-02-18T09:24:26.366Z,9.34
2023-02-18T09:26:57.070Z,9.34
2023-02-18T09:29:27.861Z,9.34
2023-02-18T09:32:00.931Z,9.35
2023-02-18T09:34:32.052Z,9.36
2023-02-18T09:37:03.345Z,9.39
2023-02-18T09:39:34.311Z,9.40
2023-02-18T09:42:08.145Z,9.40
2023-02-18T09:44:43.665Z,9.42
2023-02-18T09:47:18.165Z,9.43
2023-02-18T09:49:53.073Z,9.46
2023-02-18T09:52:26.806Z,9.52
2023-02-18T09:54:57.903Z,9.75
2023-02-18T09:57:35.345Z,9.92
2023-02-18T10:00:15.126Z,9.99
2023-02-18T10:02:53.611Z,10.02
2023-02-18T10:05:25.845Z,10.03
2023-02-18T10:07:59.989Z,10.02
2023-02-18T10:10:38.621Z,10.02
2023-02-18T10:13:14.097Z,10.01
2023-02-18T10:15:46.932Z,10.02
2023-02-18T10:18:26.259Z,10.01
2023-02-18T10:21:02.329Z,10.02
2023-02-18T10:23:35.250Z,10.04
2023-02-18T10:26:09.641Z,10.06
2023-02-18T10:28:40.961Z,10.11
2023-02-18T10:31:16.498Z,10.15
2023-02-18T10:33:54.539Z,10.20
2023-02-18T10:36:30.550Z,10.26
2023-02-18T10:39:20.194Z,10.31
2023-02-18T10:42:02.372Z,10.36
2023-02-18T10:44:45.090Z,10.40
2023-02-18T10:47:24.534Z,10.42
2023-02-18T10:49:59.921Z,10.43
2023-02-18T10:52:39.715Z,10.45
2023-02-18T10:55:12.508Z,10.46
2023-02-18T10:57:51.672Z,10.48
2023-02-18T11:00:27.063Z,10.50
2023-02-18T11:03:17.504Z,10.51
2023-02-18T11:05:49.914Z,10.53
2023-02-18T11:08:23.817Z,10.54
2023-02-18T11:10:56.110Z,10.56
2023-02-18T11:13:32.730Z,10.59
2023-02-18T11:16:06.634Z,10.63
2023-02-18T11:18:41.898Z,10.67
2023-02-18T11:21:27.315Z,10.70
2023-02-18T11:23:59.153Z,10.74
2023-02-18T11:26:34.680Z,10.78
2023-02-18T11:29:10.342Z,10.80
2023-02-18T11:31:46.320Z,10.85
2023-02-18T11:34:24.450Z,10.92
2023-02-18T11:36:55.802Z,10.98
2023-02-18T11:39:29.199Z,11.04
2023-02-18T11:42:03.612Z,11.10
2023-02-18T11:44:37.130Z,11.15
2023-02-18T11:47:20.816Z,11.21
2023-02-18T11:50:15.099Z,11.27
2023-02-18T11:52:47.907Z,11.30
2023-02-18T11:55:18.609Z,11.31
2023-02-18T11:57:55.295Z,11.33
2023-02-18T12:00:38.209Z,11.36
2023-02-18T12:03:20.135Z,11.37
2023-02-18T12:05:51.267Z,11.40
2023-02-18T12:08:25.221Z,11.42
2023-02-18T12:11:00.815Z,11.44
2023-02-18T12:13:36.119Z,11.44
2023-02-18T12:16:17.495Z,11.42
2023-02-18T12:19:16.191Z,11.41
2023-02-18T12:21:58.443Z,11.40
2023-02-18T12:24:40.302Z,11.37
2023-02-18T12:27:18.306Z,11.34
2023-02-18T12:30:05.668Z,11.31
2023-02-18T12:32:46.223Z,11.29
2023-02-18T12:35:37.756Z,11.27
2023-02-18T12:38:32.215Z,11.24
2023-02-18T12:41:18.524Z,11.23
2023-02-18T12:43:59.991Z,11.21
2023-02-18T12:46:49.607Z,11.21
2023-02-18T12:49:35.389Z,11.18
2023-02-18T12:52:25.550Z,11.16
2023-02-18T12:55:23.750Z,11.13
2023-02-18T12:58:04.962Z,11.11
2023-02-18T13:00:45.702Z,11.11
2023-02-18T13:03:42.893Z,11.15
2023-02-18T13:06:25.244Z,11.20
2023-02-18T13:09:09.750Z,11.20
2023-02-18T13:11:51.039Z,11.17
2023-02-18T13:14:25.280Z,11.13
2023-02-18T13:16:59.264Z,11.10
2023-02-18T13:19:35.154Z,11.07
2023-02-18T13:22:11.651Z,11.03
2023-02-18T13:24:44.254Z,11.03
2023-02-18T13:27:23.108Z,11.07
2023-02-18T13:30:06.077Z,11.12
2023-02-18T13:32:41.465Z,11.12
2023-02-18T13:35:23.360Z,11.10
2023-02-18T13:38:10.171Z,11.07
2023-02-18T13:40:41.970Z,11.03
2023-02-18T13:43:30.867Z,10.97
2023-02-18T13:46:14.363Z,10.89
2023-02-18T13:48:52.574Z,10.81
2023-02-18T13:51:34.361Z,10.75
2023-02-18T13:54:20.332Z,10.71
2023-02-18T13:56:55.548Z,10.68
2023-02-18T13:59:34.620Z,10.65
2023-02-18T14:02:36.124Z,10.62
2023-02-18T14:05:24.188Z,10.58
2023-02-18T14:08:12.698Z,10.57
2023-02-18T14:10:43.622Z,10.58
2023-02-18T14:13:43.431Z,10.57
2023-02-18T14:16:14.680Z,10.56
2023-02-18T14:19:02.795Z,10.56
2023-02-18T14:21:42.148Z,10.55
2023-02-18T14:24:14.379Z,10.54
2023-02-18T14:26:50.278Z,10.53
2023-02-18T14:29:31.452Z,10.52
2023-02-18T14:32:10.972Z,10.45
2023-02-18T14:35:08.191Z,10.53
2023-02-18T14:37:57.790Z,10.53
2023-02-18T14:40:39.771Z,10.51
2023-02-18T14:43:24.583Z,10.49
2023-02-18T14:46:04.365Z,10.48
2023-02-18T14:49:02.071Z,10.47
2023-02-18T14:51:35.220Z,10.46
2023-02-18T14:54:13.970Z,10.46
2023-02-18T14:56:53.120Z,10.46
2023-02-18T14:59:26.377Z,10.45
2023-02-18T15:01:58.905Z,10.45
2023-02-18T15:04:30.250Z,10.42
2023-02-18T15:07:06.523Z,10.38
2023-02-18T15:09:45.688Z,10.34
2023-02-18T15:12:20.257Z,10.27
2023-02-18T15:14:53.418Z,10.23
2023-02-18T15:17:27.784Z,10.18
2023-02-18T15:20:05.720Z,10.14
2023-02-18T15:22:38.358Z,10.11
2023-02-18T15:25:12.465Z,10.08
2023-02-18T15:27:47.076Z,10.05
2023-02-18T15:30:25.971Z,10.04
2023-02-18T15:32:58.162Z,10.04
2023-02-18T15:35:33.077Z,10.05
2023-02-18T15:38:04.603Z,10.07
2023-02-18T15:40:40.458Z,10.09
2023-02-18T15:43:16.462Z,10.15
2023-02-18T15:45:48.674Z,10.22
2023-02-18T15:48:27.449Z,10.26
2023-02-18T15:51:02.757Z,10.30
2023-02-18T15:53:42.223Z,10.32
2023-02-18T15:56:16.176Z,10.34
2023-02-18T15:58:47.029Z,10.36
2023-02-18T16:01:29.987Z,10.37
2023-02-18T16:04:01.773Z,10.39
2023-02-18T16:06:36.884Z,10.41
2023-02-18T16:09:18.247Z,10.42
2023-02-18T16:11:52.492Z,10.42
2023-02-18T16:14:34.862Z,10.44
2023-02-18T16:17:19.117Z,10.45
2023-02-18T16:20:03.970Z,10.45
2023-02-18T16:22:44.744Z,10.45
2023-02-18T16:25:22.850Z,10.46
2023-02-18T16:27:56.671Z,10.45
2023-02-18T16:30:29.192Z,10.43
2023-02-18T16:33:02.425Z,10.42
2023-02-18T16:35:48.702Z,10.43
2023-02-18T16:38:22.683Z,10.43
2023-02-18T16:40:53.176Z,10.43
2023-02-18T16:43:26.860Z,10.42
2023-02-18T16:46:00.159Z,10.40
2023-02-18T16:48:34.926Z,10.39
2023-02-18T16:51:08.749Z,10.40
2023-02-18T16:53:39.941Z,10.40
2023-02-18T16:56:16.830Z,10.40
2023-02-18T16:58:47.597Z,10.40
2023-02-18T17:01:25.098Z,10.41
2023-02-18T17:03:56.229Z,10.43
2023-02-18T17:06:27.649Z,10.44
2023-02-18T17:08:58.505Z,10.45
2023-02-18T17:11:32.566Z,10.45
2023-02-18T17:14:05.134Z,10.45
2023-02-18T17:16:34.336Z,10.45
2023-02-18T17:19:04.948Z,10.43
2023-02-18T17:21:35.607Z,10.40
2023-02-18T17:24:07.294Z,10.37
2023-02-18T17:26:37.912Z,10.36
2023-02-18T17:29:08.686Z,10.35
2023-02-18T17:31:44.525Z,10.31
2023-02-18T17:34:23.044Z,10.28
2023-02-18T17:36:53.632Z,10.24
2023-02-18T17:39:25.020Z,10.22
2023-02-18T17:41:55.721Z,10.19
2023-02-18T17:44:27.745Z,10.16
2023-02-18T17:46:58.475Z,10.13
2023-02-18T17:49:29.178Z,10.10
2023-02-18T17:52:01.304Z,10.08
2023-02-18T17:54:31.911Z,10.07
2023-02-18T17:57:02.569Z,10.07
2023-02-18T17:59:33.269Z,10.06
2023-02-18T18:02:04.127Z,10.06
2023-02-18T18:04:34.860Z,10.06
2023-02-18T18:07:05.520Z,10.06
2023-02-18T18:09:36.224Z,10.06
2023-02-18T18:12:08.025Z,10.07
2023-02-18T18:14:38.693Z,10.07
2023-02-18T18:17:13.278Z,10.07
2023-02-18T18:19:43.963Z,10.09
2023-02-18T18:22:14.710Z,10.12
2023-02-18T18:24:45.454Z,10.13
2023-02-18T18:27:16.131Z,10.13
2023-02-18T18:29:46.789Z,10.14
2023-02-18T18:32:17.470Z,10.15
2023-02-18T18:34:49.399Z,10.17
2023-02-18T18:37:20.199Z,10.20
2023-02-18T18:39:50.895Z,10.22
2023-02-18T18:42:21.673Z,10.24
2023-02-18T18:44:52.413Z,10.23
2023-02-18T18:47:23.051Z,10.23
2023-02-18T18:49:53.676Z,10.20
2023-02-18T18:52:24.476Z,10.16
2023-02-18T18:54:55.135Z,10.14
2023-02-18T18:57:26.075Z,10.12
2023-02-18T18:59:56.845Z,10.09
2023-02-18T19:02:27.585Z,10.06
2023-02-18T19:04:58.341Z,10.03
2023-02-18T19:07:29.095Z,10.03
2023-02-18T19:09:59.725Z,10.03
2023-02-18T19:12:30.505Z,10.03
2023-02-18T19:15:01.206Z,10.03
2023-02-18T19:17:31.833Z,10.04
2023-02-18T19:20:02.524Z,10.04
2023-02-18T19:22:33.199Z,10.04
2023-02-18T19:25:04.306Z,10.04
2023-02-18T19:27:37.315Z,10.05
2023-02-18T19:30:12.911Z,10.06
2023-02-18T19:32:43.641Z,10.06
2023-02-18T19:35:14.909Z,10.08
2023-02-18T19:37:45.970Z,10.09
2023-02-18T19:40:37.409Z,10.09
2023-02-18T19:43:08.956Z,10.09
2023-02-18T19:45:43.244Z,10.08
2023-02-18T19:48:15.397Z,10.08
2023-02-18T19:50:46.441Z,10.06
2023-02-18T19:53:17.103Z,10.03
2023-02-18T19:55:56.935Z,10.00
2023-02-18T19:58:27.922Z,9.98
2023-02-18T20:00:59.359Z,9.94
2023-02-18T20:03:30.428Z,9.90
2023-02-18T20:06:01.134Z,9.88
2023-02-18T20:08:36.779Z,9.86
2023-02-18T20:11:07.916Z,9.84
2023-02-18T20:13:39.068Z,9.82
2023-02-18T20:16:11.591Z,9.82
2023-02-18T20:18:42.427Z,9.81
2023-02-18T20:21:14.410Z,9.80
2023-02-18T20:23:45.220Z,9.79
2023-02-18T20:26:16.320Z,9.77
2023-02-18T20:28:47.146Z,9.77
2023-02-18T20:31:18.463Z,9.77
2023-02-18T20:33:49.209Z,9.76
2023-02-18T20:36:20.102Z,9.76
2023-02-18T20:38:52.523Z,9.74
2023-02-18T20:41:24.455Z,9.76
2023-02-18T20:43:59.325Z,9.76
2023-02-18T20:46:30.176Z,9.77
2023-02-18T20:49:00.905Z,9.78
2023-02-18T20:51:31.581Z,9.79
2023-02-18T20:54:04.591Z,9.80
2023-02-18T20:56:35.878Z,9.81
2023-02-18T20:59:07.122Z,9.80
2023-02-18T21:01:40.089Z,9.81
2023-02-18T21:04:13.732Z,9.80
2023-02-18T21:06:46.225Z,9.79
2023-02-18T21:09:17.914Z,9.79
2023-02-18T21:11:49.424Z,9.78
2023-02-18T21:14:20.152Z,9.77
2023-02-18T21:16:51.273Z,9.77
2023-02-18T21:19:21.957Z,9.76
2023-02-18T21:21:52.682Z,9.76
2023-02-18T21:24:23.457Z,9.76
2023-02-18T21:26:54.876Z,9.76
2023-02-18T21:29:25.763Z,9.76
2023-02-18T21:31:56.576Z,9.76
2023-02-18T21:34:27.409Z,9.76
2023-02-18T21:36:58.088Z,9.76
2023-02-18T21:39:28.707Z,9.77
2023-02-18T21:42:00.272Z,9.77
2023-02-18T21:44:41.718Z,9.77
2023-02-18T21:47:13.841Z,9.77
2023-02-18T21:49:44.508Z,9.77
2023-02-18T21:52:15.250Z,9.78
2023-02-18T21:54:46.707Z,9.77
2023-02-18T21:57:19.752Z,9.77
2023-02-18T21:59:50.632Z,9.76
2023-02-18T22:02:23.482Z,9.77
2023-02-18T22:04:54.900Z,9.75
2023-02-18T22:07:27.461Z,9.73
2023-02-18T22:09:58.608Z,9.71
2023-02-18T22:12:31.991Z,9.70
2023-02-18T22:15:04.368Z,9.70
2023-02-18T22:17:35.027Z,9.71
2023-02-18T22:20:07.161Z,9.70
2023-02-18T22:22:37.776Z,9.69
2023-02-18T22:25:09.866Z,9.68
2023-02-18T22:27:40.494Z,9.67
2023-02-18T22:30:13.079Z,9.68
2023-02-18T22:32:44.018Z,9.68
2023-02-18T22:35:16.677Z,9.68
2023-02-18T22:37:47.857Z,9.68
2023-02-18T22:40:18.781Z,9.68
2023-02-18T22:42:49.354Z,9.69
2023-02-18T22:45:20.498Z,9.70
2023-02-18T22:47:51.198Z,9.71
2023-02-18T22:50:22.029Z,9.72
2023-02-18T22:52:52.674Z,9.72
2023-02-18T22:55:23.495Z,9.71
2023-02-18T22:57:54.229Z,9.70
2023-02-18T23:00:27.165Z,9.68
2023-02-18T23:02:57.781Z,9.65
2023-02-18T23:05:28.381Z,9.63
2023-02-18T23:07:59.437Z,9.60
2023-02-18T23:10:32.817Z,9.57
2023-02-18T23:13:03.565Z,9.55
2023-02-18T23:15:34.357Z,9.54
2023-02-18T23:18:05.331Z,9.55
2023-02-18T23:20:54.543Z,9.57
2023-02-18T23:23:25.215Z,9.59
2023-02-18T23:26:01.272Z,9.60
2023-02-18T23:28:47.620Z,9.61
2023-02-18T23:31:20.731Z,9.61
2023-02-18T23:33:54.071Z,9.62
2023-02-18T23:36:27.468Z,9.59
2023-02-18T23:39:00.099Z,9.56
2023-02-18T23:41:31.591Z,9.55
2023-02-18T23:44:03.517Z,9.51
2023-02-18T23:46:34.976Z,9.49
2023-02-18T23:49:06.129Z,9.47
2023-02-18T23:51:37.182Z,9.46
2023-02-18T23:54:08.466Z,9.45
2023-02-18T23:56:39.403Z,9.44
2023-02-18T23:59:11.439Z,9.44
